sensor_id;sensor_type;location;lat;lon;timestamp;temperature;humidity
33815;DHT22;20121;51.910;8.406;2023-05-24T00:01:06;8.10;99.90
33815;DHT22;20121;51.910;8.406;2023-05-24T00:03:33;8.10;99.90
33815;DHT22;20121;51.910;8.406;2023-05-24T00:06:01;8.10;99.90
33815;DHT22;20121;51.910;8.406;2023-05-24T00:08:28;8.00;99.90
33815;DHT22;20121;51.910;8.406;2023-05-24T00:10:53;8.10;99.90
33815;DHT22;20121;51.910;8.406;2023-05-24T00:13:19;8.00;99.90
33815;DHT22;20121;51.910;8.406;2023-05-24T00:15:44;8.00;99.90
33815;DHT22;20121;51.910;8.406;2023-05-24T00:18:10;8.00;99.90
33815;DHT22;20121;51.910;8.406;2023-05-24T00:20:36;8.00;99.90
33815;DHT22;20121;51.910;8.406;2023-05-24T00:23:01;7.90;99.90
33815;DHT22;20121;51.910;8.406;2023-05-24T00:25:27;7.90;99.90
33815;DHT22;20121;51.910;8.406;2023-05-24T00:27:52;7.90;99.90
33815;DHT22;20121;51.910;8.406;2023-05-24T00:30:18;7.90;99.90
33815;DHT22;20121;51.910;8.406;2023-05-24T00:32:44;7.90;99.90
33815;DHT22;20121;51.910;8.406;2023-05-24T00:35:10;7.90;99.90
33815;DHT22;20121;51.910;8.406;2023-05-24T00:37:35;7.80;99.90
33815;DHT22;20121;51.910;8.406;2023-05-24T00:40:01;7.80;99.90
33815;DHT22;20121;51.910;8.406;2023-05-24T00:42:28;7.80;99.90
33815;DHT22;20121;51.910;8.406;2023-05-24T00:44:54;7.80;99.90
33815;DHT22;20121;51.910;8.406;2023-05-24T00:47:19;7.80;99.90
33815;DHT22;20121;51.910;8.406;2023-05-24T00:49:45;7.70;99.90
33815;DHT22;20121;51.910;8.406;2023-05-24T00:52:11;7.70;99.90
33815;DHT22;20121;51.910;8.406;2023-05-24T00:54:37;7.70;99.90
33815;DHT22;20121;51.910;8.406;2023-05-24T00:57:05;7.70;99.90
33815;DHT22;20121;51.910;8.406;2023-05-24T00:59:31;7.40;99.90
33815;DHT22;20121;51.910;8.406;2023-05-24T01:01:57;7.60;99.90
33815;DHT22;20121;51.910;8.406;2023-05-24T01:04:22;7.60;99.90
33815;DHT22;20121;51.910;8.406;2023-05-24T01:14:52;7.50;99.90
33815;DHT22;20121;51.910;8.406;2023-05-24T01:17:22;7.50;99.90
33815;DHT22;20121;51.910;8.406;2023-05-24T01:20:02;7.50;99.90
33815;DHT22;20121;51.910;8.406;2023-05-24T01:25:53;7.50;99.90
33815;DHT22;20121;51.910;8.406;2023-05-24T01:28:24;7.40;99.90
33815;DHT22;20121;51.910;8.406;2023-05-24T01:30:51;7.40;99.90
33815;DHT22;20121;51.910;8.406;2023-05-24T01:33:17;7.30;99.90
33815;DHT22;20121;51.910;8.406;2023-05-24T01:35:43;7.30;99.90
33815;DHT22;20121;51.910;8.406;2023-05-24T01:38:09;7.30;99.90
33815;DHT22;20121;51.910;8.406;2023-05-24T01:40:39;7.30;99.90
33815;DHT22;20121;51.910;8.406;2023-05-24T01:43:24;7.30;99.90
33815;DHT22;20121;51.910;8.406;2023-05-24T01:46:14;7.20;99.90
33815;DHT22;20121;51.910;8.406;2023-05-24T01:52:16;7.20;99.90
33815;DHT22;20121;51.910;8.406;2023-05-24T01:54:46;7.10;99.90
33815;DHT22;20121;51.910;8.406;2023-05-24T01:57:13;7.10;99.90
33815;DHT22;20121;51.910;8.406;2023-05-24T01:59:40;7.00;99.90
33815;DHT22;20121;51.910;8.406;2023-05-24T02:02:07;7.10;99.90
33815;DHT22;20121;51.910;8.406;2023-05-24T02:04:33;7.00;99.90
33815;DHT22;20121;51.910;8.406;2023-05-24T02:06:59;7.00;99.90
33815;DHT22;20121;51.910;8.406;2023-05-24T02:09:24;7.00;99.90
33815;DHT22;20121;51.910;8.406;2023-05-24T02:11:50;6.90;99.90
33815;DHT22;20121;51.910;8.406;2023-05-24T02:14:15;6.90;99.90
33815;DHT22;20121;51.910;8.406;2023-05-24T02:16:44;6.90;99.90
33815;DHT22;20121;51.910;8.406;2023-05-24T02:19:11;6.90;99.90
33815;DHT22;20121;51.910;8.406;2023-05-24T02:21:37;6.90;99.90
33815;DHT22;20121;51.910;8.406;2023-05-24T02:24:03;6.80;99.90
33815;DHT22;20121;51.910;8.406;2023-05-24T02:26:29;6.80;99.90
33815;DHT22;20121;51.910;8.406;2023-05-24T02:28:55;6.80;99.90
33815;DHT22;20121;51.910;8.406;2023-05-24T02:31:21;6.60;99.90
33815;DHT22;20121;51.910;8.406;2023-05-24T02:33:47;6.70;99.90
33815;DHT22;20121;51.910;8.406;2023-05-24T02:36:12;6.70;99.90
33815;DHT22;20121;51.910;8.406;2023-05-24T02:38:38;6.70;99.90
33815;DHT22;20121;51.910;8.406;2023-05-24T02:41:04;6.70;99.90
33815;DHT22;20121;51.910;8.406;2023-05-24T02:43:30;6.70;99.90
33815;DHT22;20121;51.910;8.406;2023-05-24T02:45:55;6.70;99.90
33815;DHT22;20121;51.910;8.406;2023-05-24T02:48:21;6.60;99.90
33815;DHT22;20121;51.910;8.406;2023-05-24T02:50:47;6.60;99.90
33815;DHT22;20121;51.910;8.406;2023-05-24T02:53:12;6.60;99.90
33815;DHT22;20121;51.910;8.406;2023-05-24T02:55:38;6.60;99.90
33815;DHT22;20121;51.910;8.406;2023-05-24T02:58:04;6.60;99.90
33815;DHT22;20121;51.910;8.406;2023-05-24T03:00:30;6.60;99.90
33815;DHT22;20121;51.910;8.406;2023-05-24T03:02:56;6.50;99.90
33815;DHT22;20121;51.910;8.406;2023-05-24T03:05:25;6.50;99.90
33815;DHT22;20121;51.910;8.406;2023-05-24T03:07:50;6.50;99.90
33815;DHT22;20121;51.910;8.406;2023-05-24T03:10:16;6.50;99.90
33815;DHT22;20121;51.910;8.406;2023-05-24T03:12:41;6.50;99.90
33815;DHT22;20121;51.910;8.406;2023-05-24T03:15:07;6.50;99.90
33815;DHT22;20121;51.910;8.406;2023-05-24T03:17:33;6.50;99.90
33815;DHT22;20121;51.910;8.406;2023-05-24T03:19:59;6.50;99.90
33815;DHT22;20121;51.910;8.406;2023-05-24T03:22:25;6.50;99.90
33815;DHT22;20121;51.910;8.406;2023-05-24T03:24:51;6.50;99.90
33815;DHT22;20121;51.910;8.406;2023-05-24T03:27:16;6.50;99.90
33815;DHT22;20121;51.910;8.406;2023-05-24T03:29:42;6.50;99.90
33815;DHT22;20121;51.910;8.406;2023-05-24T03:32:07;6.50;99.90
33815;DHT22;20121;51.910;8.406;2023-05-24T03:34:33;6.50;99.90
33815;DHT22;20121;51.910;8.406;2023-05-24T03:36:59;6.50;99.90
33815;DHT22;20121;51.910;8.406;2023-05-24T03:39:24;6.60;99.90
33815;DHT22;20121;51.910;8.406;2023-05-24T03:41:50;6.50;99.90
33815;DHT22;20121;51.910;8.406;2023-05-24T03:44:15;6.50;99.90
33815;DHT22;20121;51.910;8.406;2023-05-24T03:49:07;6.60;99.90
33815;DHT22;20121;51.910;8.406;2023-05-24T03:51:33;6.60;99.90
33815;DHT22;20121;51.910;8.406;2023-05-24T03:53:58;6.60;99.90
33815;DHT22;20121;51.910;8.406;2023-05-24T03:56:25;6.70;99.90
33815;DHT22;20121;51.910;8.406;2023-05-24T03:58:51;6.70;99.90
33815;DHT22;20121;51.910;8.406;2023-05-24T04:01:19;6.80;99.90
33815;DHT22;20121;51.910;8.406;2023-05-24T04:03:45;6.80;99.90
33815;DHT22;20121;51.910;8.406;2023-05-24T04:06:11;6.80;99.90
33815;DHT22;20121;51.910;8.406;2023-05-24T04:08:37;6.90;99.90
33815;DHT22;20121;51.910;8.406;2023-05-24T04:11:03;6.90;99.90
33815;DHT22;20121;51.910;8.406;2023-05-24T04:13:29;7.00;99.90
33815;DHT22;20121;51.910;8.406;2023-05-24T04:15:55;7.00;99.90
33815;DHT22;20121;51.910;8.406;2023-05-24T04:18:21;7.10;99.90
33815;DHT22;20121;51.910;8.406;2023-05-24T04:20:46;7.10;99.90
33815;DHT22;20121;51.910;8.406;2023-05-24T04:23:12;7.20;99.90
33815;DHT22;20121;51.910;8.406;2023-05-24T04:25:37;7.20;99.90
33815;DHT22;20121;51.910;8.406;2023-05-24T04:28:03;7.20;99.90
33815;DHT22;20121;51.910;8.406;2023-05-24T04:30:29;7.20;99.90
33815;DHT22;20121;51.910;8.406;2023-05-24T04:32:57;6.90;99.90
33815;DHT22;20121;51.910;8.406;2023-05-24T04:35:23;7.30;99.90
33815;DHT22;20121;51.910;8.406;2023-05-24T04:37:50;7.30;99.90
33815;DHT22;20121;51.910;8.406;2023-05-24T04:40:16;7.30;99.90
33815;DHT22;20121;51.910;8.406;2023-05-24T04:42:41;7.10;99.90
33815;DHT22;20121;51.910;8.406;2023-05-24T04:45:07;7.30;99.90
33815;DHT22;20121;51.910;8.406;2023-05-24T04:47:33;7.40;99.90
33815;DHT22;20121;51.910;8.406;2023-05-24T04:49:59;7.50;99.90
33815;DHT22;20121;51.910;8.406;2023-05-24T04:52:24;7.50;99.90
33815;DHT22;20121;51.910;8.406;2023-05-24T04:54:50;7.60;99.90
33815;DHT22;20121;51.910;8.406;2023-05-24T04:57:16;7.60;99.90
33815;DHT22;20121;51.910;8.406;2023-05-24T04:59:42;8.10;99.90
33815;DHT22;20121;51.910;8.406;2023-05-24T05:02:08;8.00;99.90
33815;DHT22;20121;51.910;8.406;2023-05-24T05:04:33;7.80;99.90
33815;DHT22;20121;51.910;8.406;2023-05-24T05:06:59;7.90;99.90
33815;DHT22;20121;51.910;8.406;2023-05-24T05:09:24;8.00;99.90
33815;DHT22;20121;51.910;8.406;2023-05-24T05:11:50;8.00;99.90
33815;DHT22;20121;51.910;8.406;2023-05-24T05:14:16;8.10;99.90
33815;DHT22;20121;51.910;8.406;2023-05-24T05:16:41;8.40;99.90
33815;DHT22;20121;51.910;8.406;2023-05-24T05:19:07;8.20;99.90
33815;DHT22;20121;51.910;8.406;2023-05-24T05:21:33;8.30;99.90
33815;DHT22;20121;51.910;8.406;2023-05-24T05:24:02;8.30;99.90
33815;DHT22;20121;51.910;8.406;2023-05-24T05:26:28;8.40;99.90
33815;DHT22;20121;51.910;8.406;2023-05-24T05:28:55;8.40;99.90
33815;DHT22;20121;51.910;8.406;2023-05-24T05:31:21;8.50;99.90
33815;DHT22;20121;51.910;8.406;2023-05-24T05:33:47;8.50;99.90
33815;DHT22;20121;51.910;8.406;2023-05-24T05:36:12;8.60;99.90
33815;DHT22;20121;51.910;8.406;2023-05-24T05:38:38;8.70;99.90
33815;DHT22;20121;51.910;8.406;2023-05-24T05:41:04;8.80;99.90
33815;DHT22;20121;51.910;8.406;2023-05-24T05:43:30;9.30;99.90
33815;DHT22;20121;51.910;8.406;2023-05-24T05:45:56;10.00;99.90
33815;DHT22;20121;51.910;8.406;2023-05-24T05:48:21;9.20;99.90
33815;DHT22;20121;51.910;8.406;2023-05-24T05:50:47;9.30;99.90
33815;DHT22;20121;51.910;8.406;2023-05-24T05:53:14;9.40;99.90
33815;DHT22;20121;51.910;8.406;2023-05-24T05:55:40;9.40;99.90
33815;DHT22;20121;51.910;8.406;2023-05-24T05:58:06;9.40;99.90
33815;DHT22;20121;51.910;8.406;2023-05-24T06:00:31;9.50;99.90
33815;DHT22;20121;51.910;8.406;2023-05-24T06:02:57;9.70;99.90
33815;DHT22;20121;51.910;8.406;2023-05-24T06:05:22;9.70;99.90
33815;DHT22;20121;51.910;8.406;2023-05-24T06:07:48;9.80;99.90
33815;DHT22;20121;51.910;8.406;2023-05-24T06:10:14;10.20;99.90
33815;DHT22;20121;51.910;8.406;2023-05-24T06:12:39;10.20;99.90
33815;DHT22;20121;51.910;8.406;2023-05-24T06:15:06;9.90;99.90
33815;DHT22;20121;51.910;8.406;2023-05-24T06:17:32;10.00;99.90
33815;DHT22;20121;51.910;8.406;2023-05-24T06:19:59;10.10;99.90
33815;DHT22;20121;51.910;8.406;2023-05-24T06:22:25;10.10;99.90
33815;DHT22;20121;51.910;8.406;2023-05-24T06:24:54;10.10;99.90
33815;DHT22;20121;51.910;8.406;2023-05-24T06:27:20;10.20;99.90
33815;DHT22;20121;51.910;8.406;2023-05-24T06:29:45;10.20;99.90
33815;DHT22;20121;51.910;8.406;2023-05-24T06:32:11;10.30;99.90
33815;DHT22;20121;51.910;8.406;2023-05-24T06:34:37;10.30;99.90
33815;DHT22;20121;51.910;8.406;2023-05-24T06:39:29;10.50;99.90
33815;DHT22;20121;51.910;8.406;2023-05-24T06:41:54;10.60;99.90
33815;DHT22;20121;51.910;8.406;2023-05-24T06:44:20;10.70;99.90
33815;DHT22;20121;51.910;8.406;2023-05-24T06:46:47;10.20;99.90
33815;DHT22;20121;51.910;8.406;2023-05-24T06:49:13;10.80;99.90
33815;DHT22;20121;51.910;8.406;2023-05-24T06:51:39;10.90;99.90
33815;DHT22;20121;51.910;8.406;2023-05-24T06:54:04;11.00;99.90
33815;DHT22;20121;51.910;8.406;2023-05-24T06:56:31;10.90;99.90
33815;DHT22;20121;51.910;8.406;2023-05-24T06:58:58;11.00;99.90
33815;DHT22;20121;51.910;8.406;2023-05-24T07:01:23;11.00;99.90
33815;DHT22;20121;51.910;8.406;2023-05-24T07:03:49;11.00;99.90
33815;DHT22;20121;51.910;8.406;2023-05-24T07:06:15;11.10;99.90
33815;DHT22;20121;51.910;8.406;2023-05-24T07:08:41;11.10;99.90
33815;DHT22;20121;51.910;8.406;2023-05-24T07:11:07;11.20;99.90
33815;DHT22;20121;51.910;8.406;2023-05-24T07:13:33;11.40;99.90
33815;DHT22;20121;51.910;8.406;2023-05-24T07:15:58;11.40;99.90
33815;DHT22;20121;51.910;8.406;2023-05-24T07:18:24;11.50;99.90
33815;DHT22;20121;51.910;8.406;2023-05-24T07:20:50;11.60;99.90
33815;DHT22;20121;51.910;8.406;2023-05-24T07:23:16;11.70;99.90
33815;DHT22;20121;51.910;8.406;2023-05-24T07:25:41;11.70;99.90
33815;DHT22;20121;51.910;8.406;2023-05-24T07:28:07;11.80;99.90
33815;DHT22;20121;51.910;8.406;2023-05-24T07:30:33;11.60;99.90
33815;DHT22;20121;51.910;8.406;2023-05-24T07:32:59;12.00;99.90
33815;DHT22;20121;51.910;8.406;2023-05-24T07:35:25;11.30;99.90
33815;DHT22;20121;51.910;8.406;2023-05-24T07:37:51;12.10;99.90
33815;DHT22;20121;51.910;8.406;2023-05-24T07:40:16;12.10;99.90
33815;DHT22;20121;51.910;8.406;2023-05-24T07:42:42;12.60;99.90
33815;DHT22;20121;51.910;8.406;2023-05-24T07:45:08;12.40;99.90
33815;DHT22;20121;51.910;8.406;2023-05-24T07:47:35;12.40;99.90
33815;DHT22;20121;51.910;8.406;2023-05-24T07:50:01;12.60;99.90
33815;DHT22;20121;51.910;8.406;2023-05-24T07:52:28;12.90;99.90
33815;DHT22;20121;51.910;8.406;2023-05-24T07:54:54;12.80;99.90
33815;DHT22;20121;51.910;8.406;2023-05-24T07:57:19;13.40;99.90
33815;DHT22;20121;51.910;8.406;2023-05-24T07:59:45;13.00;99.90
33815;DHT22;20121;51.910;8.406;2023-05-24T08:02:11;13.10;99.90
33815;DHT22;20121;51.910;8.406;2023-05-24T08:04:38;13.20;99.90
33815;DHT22;20121;51.910;8.406;2023-05-24T08:07:04;12.80;99.90
33815;DHT22;20121;51.910;8.406;2023-05-24T08:09:31;13.20;99.90
33815;DHT22;20121;51.910;8.406;2023-05-24T08:12:04;13.00;99.90
33815;DHT22;20121;51.910;8.406;2023-05-24T08:14:30;13.40;99.90
33815;DHT22;20121;51.910;8.406;2023-05-24T08:16:56;13.80;99.90
33815;DHT22;20121;51.910;8.406;2023-05-24T08:19:21;13.70;99.90
33815;DHT22;20121;51.910;8.406;2023-05-24T08:21:48;13.80;99.90
33815;DHT22;20121;51.910;8.406;2023-05-24T08:24:13;13.40;99.90
33815;DHT22;20121;51.910;8.406;2023-05-24T08:26:39;13.80;99.90
33815;DHT22;20121;51.910;8.406;2023-05-24T08:29:05;13.70;99.90
33815;DHT22;20121;51.910;8.406;2023-05-24T08:31:31;13.80;99.90
33815;DHT22;20121;51.910;8.406;2023-05-24T08:33:59;13.70;99.90
33815;DHT22;20121;51.910;8.406;2023-05-24T08:36:25;14.10;99.90
33815;DHT22;20121;51.910;8.406;2023-05-24T08:38:51;14.10;99.90
33815;DHT22;20121;51.910;8.406;2023-05-24T08:41:16;14.10;99.90
33815;DHT22;20121;51.910;8.406;2023-05-24T08:43:42;14.30;99.90
33815;DHT22;20121;51.910;8.406;2023-05-24T08:46:09;14.40;99.90
33815;DHT22;20121;51.910;8.406;2023-05-24T08:48:45;14.90;99.90
33815;DHT22;20121;51.910;8.406;2023-05-24T08:51:13;14.70;99.90
33815;DHT22;20121;51.910;8.406;2023-05-24T08:53:40;14.80;99.90
33815;DHT22;20121;51.910;8.406;2023-05-24T08:56:06;14.80;99.90
33815;DHT22;20121;51.910;8.406;2023-05-24T08:58:36;14.80;99.90
33815;DHT22;20121;51.910;8.406;2023-05-24T09:01:03;14.50;99.90
33815;DHT22;20121;51.910;8.406;2023-05-24T09:03:30;14.20;99.90
33815;DHT22;20121;51.910;8.406;2023-05-24T09:05:57;14.30;99.90
33815;DHT22;20121;51.910;8.406;2023-05-24T09:08:22;14.30;99.90
33815;DHT22;20121;51.910;8.406;2023-05-24T09:10:48;14.10;99.90
33815;DHT22;20121;51.910;8.406;2023-05-24T09:13:14;14.10;99.90
33815;DHT22;20121;51.910;8.406;2023-05-24T09:15:41;14.10;99.90
33815;DHT22;20121;51.910;8.406;2023-05-24T09:18:07;14.10;99.90
33815;DHT22;20121;51.910;8.406;2023-05-24T09:20:32;14.00;99.90
33815;DHT22;20121;51.910;8.406;2023-05-24T09:22:59;14.00;99.90
33815;DHT22;20121;51.910;8.406;2023-05-24T09:25:27;13.80;99.90
33815;DHT22;20121;51.910;8.406;2023-05-24T09:27:55;14.20;99.90
33815;DHT22;20121;51.910;8.406;2023-05-24T09:30:21;13.90;99.90
33815;DHT22;20121;51.910;8.406;2023-05-24T09:32:57;14.00;99.90
33815;DHT22;20121;51.910;8.406;2023-05-24T09:35:24;13.90;99.90
33815;DHT22;20121;51.910;8.406;2023-05-24T09:37:53;13.90;99.90
33815;DHT22;20121;51.910;8.406;2023-05-24T09:40:22;13.80;99.90
33815;DHT22;20121;51.910;8.406;2023-05-24T09:45:16;13.70;99.90
33815;DHT22;20121;51.910;8.406;2023-05-24T09:47:42;13.70;99.90
33815;DHT22;20121;51.910;8.406;2023-05-24T09:50:13;13.70;99.90
33815;DHT22;20121;51.910;8.406;2023-05-24T09:52:40;13.70;99.90
33815;DHT22;20121;51.910;8.406;2023-05-24T09:55:19;13.70;99.90
33815;DHT22;20121;51.910;8.406;2023-05-24T09:58:01;13.70;99.90
33815;DHT22;20121;51.910;8.406;2023-05-24T10:00:28;13.70;99.90
33815;DHT22;20121;51.910;8.406;2023-05-24T10:03:03;13.60;99.90
33815;DHT22;20121;51.910;8.406;2023-05-24T10:05:32;13.60;99.90
33815;DHT22;20121;51.910;8.406;2023-05-24T10:07:59;13.60;99.90
33815;DHT22;20121;51.910;8.406;2023-05-24T10:10:29;13.70;99.90
33815;DHT22;20121;51.910;8.406;2023-05-24T10:12:55;13.40;99.90
33815;DHT22;20121;51.910;8.406;2023-05-24T10:15:21;13.60;99.90
33815;DHT22;20121;51.910;8.406;2023-05-24T10:17:47;13.60;99.90
33815;DHT22;20121;51.910;8.406;2023-05-24T10:20:13;13.60;99.90
33815;DHT22;20121;51.910;8.406;2023-05-24T10:22:43;13.60;99.90
33815;DHT22;20121;51.910;8.406;2023-05-24T10:25:14;13.60;99.90
33815;DHT22;20121;51.910;8.406;2023-05-24T10:27:43;13.60;99.90
33815;DHT22;20121;51.910;8.406;2023-05-24T10:32:39;13.60;99.90
33815;DHT22;20121;51.910;8.406;2023-05-24T10:35:08;13.60;99.90
33815;DHT22;20121;51.910;8.406;2023-05-24T10:37:36;13.50;99.90
33815;DHT22;20121;51.910;8.406;2023-05-24T10:40:03;13.50;99.90
33815;DHT22;20121;51.910;8.406;2023-05-24T10:42:31;13.50;99.90
33815;DHT22;20121;51.910;8.406;2023-05-24T10:44:57;13.50;99.90
33815;DHT22;20121;51.910;8.406;2023-05-24T10:47:24;13.50;99.90
33815;DHT22;20121;51.910;8.406;2023-05-24T10:49:56;13.40;99.90
33815;DHT22;20121;51.910;8.406;2023-05-24T10:52:33;13.40;99.90
33815;DHT22;20121;51.910;8.406;2023-05-24T10:55:06;13.40;99.90
33815;DHT22;20121;51.910;8.406;2023-05-24T10:57:37;13.40;99.90
33815;DHT22;20121;51.910;8.406;2023-05-24T11:03:22;13.30;99.90
33815;DHT22;20121;51.910;8.406;2023-05-24T11:05:52;13.30;99.90
33815;DHT22;20121;51.910;8.406;2023-05-24T11:10:47;13.50;99.90
33815;DHT22;20121;51.910;8.406;2023-05-24T11:13:13;13.50;99.90
33815;DHT22;20121;51.910;8.406;2023-05-24T11:15:39;13.50;99.90
33815;DHT22;20121;51.910;8.406;2023-05-24T11:18:14;13.40;99.90
33815;DHT22;20121;51.910;8.406;2023-05-24T11:20:43;13.40;99.90
33815;DHT22;20121;51.910;8.406;2023-05-24T11:23:10;13.50;99.90
33815;DHT22;20121;51.910;8.406;2023-05-24T11:25:39;13.60;99.90
33815;DHT22;20121;51.910;8.406;2023-05-24T11:28:07;13.80;99.90
33815;DHT22;20121;51.910;8.406;2023-05-24T11:30:43;13.90;99.90
33815;DHT22;20121;51.910;8.406;2023-05-24T11:33:17;13.80;99.90
33815;DHT22;20121;51.910;8.406;2023-05-24T11:35:43;14.00;99.90
33815;DHT22;20121;51.910;8.406;2023-05-24T11:38:13;14.10;99.90
33815;DHT22;20121;51.910;8.406;2023-05-24T11:40:43;14.20;99.90
33815;DHT22;20121;51.910;8.406;2023-05-24T11:43:11;14.20;99.90
33815;DHT22;20121;51.910;8.406;2023-05-24T11:45:38;14.30;99.90
33815;DHT22;20121;51.910;8.406;2023-05-24T11:48:04;14.30;99.90
33815;DHT22;20121;51.910;8.406;2023-05-24T11:50:30;14.30;99.90
33815;DHT22;20121;51.910;8.406;2023-05-24T11:53:03;14.40;99.90
33815;DHT22;20121;51.910;8.406;2023-05-24T11:55:28;14.10;99.90
33815;DHT22;20121;51.910;8.406;2023-05-24T11:57:57;14.20;99.90
33815;DHT22;20121;51.910;8.406;2023-05-24T12:00:27;14.30;99.90
33815;DHT22;20121;51.910;8.406;2023-05-24T12:02:56;14.30;99.90
33815;DHT22;20121;51.910;8.406;2023-05-24T12:05:26;14.60;99.90
33815;DHT22;20121;51.910;8.406;2023-05-24T12:08:07;14.80;99.90
33815;DHT22;20121;51.910;8.406;2023-05-24T12:10:37;14.80;99.90
33815;DHT22;20121;51.910;8.406;2023-05-24T12:13:04;14.90;99.90
33815;DHT22;20121;51.910;8.406;2023-05-24T12:15:30;15.00;99.90
33815;DHT22;20121;51.910;8.406;2023-05-24T12:17:57;15.10;99.90
33815;DHT22;20121;51.910;8.406;2023-05-24T12:20:23;15.10;99.90
33815;DHT22;20121;51.910;8.406;2023-05-24T12:22:53;15.10;99.90
33815;DHT22;20121;51.910;8.406;2023-05-24T12:25:21;15.10;99.90
33815;DHT22;20121;51.910;8.406;2023-05-24T12:27:51;15.00;99.90
33815;DHT22;20121;51.910;8.406;2023-05-24T12:30:24;15.00;99.90
33815;DHT22;20121;51.910;8.406;2023-05-24T12:32:50;15.00;99.90
33815;DHT22;20121;51.910;8.406;2023-05-24T12:35:19;15.00;99.90
33815;DHT22;20121;51.910;8.406;2023-05-24T12:37:45;14.80;99.90
33815;DHT22;20121;51.910;8.406;2023-05-24T12:40:20;14.70;99.90
33815;DHT22;20121;51.910;8.406;2023-05-24T12:42:49;14.60;99.90
33815;DHT22;20121;51.910;8.406;2023-05-24T12:45:16;14.60;99.90
33815;DHT22;20121;51.910;8.406;2023-05-24T12:47:51;14.60;99.90
33815;DHT22;20121;51.910;8.406;2023-05-24T12:50:18;14.50;99.90
33815;DHT22;20121;51.910;8.406;2023-05-24T12:52:44;14.50;99.90
33815;DHT22;20121;51.910;8.406;2023-05-24T12:55:15;14.50;99.90
33815;DHT22;20121;51.910;8.406;2023-05-24T12:57:45;14.50;99.90
33815;DHT22;20121;51.910;8.406;2023-05-24T13:00:25;14.40;99.90
33815;DHT22;20121;51.910;8.406;2023-05-24T13:02:56;14.60;99.90
33815;DHT22;20121;51.910;8.406;2023-05-24T13:05:26;14.40;99.90
33815;DHT22;20121;51.910;8.406;2023-05-24T13:07:53;14.30;99.90
33815;DHT22;20121;51.910;8.406;2023-05-24T13:10:21;14.30;99.90
33815;DHT22;20121;51.910;8.406;2023-05-24T13:12:47;14.30;99.90
33815;DHT22;20121;51.910;8.406;2023-05-24T13:15:13;14.30;99.90
33815;DHT22;20121;51.910;8.406;2023-05-24T13:17:39;14.20;99.90
33815;DHT22;20121;51.910;8.406;2023-05-24T13:20:06;14.20;99.90
33815;DHT22;20121;51.910;8.406;2023-05-24T13:22:36;14.20;99.90
33815;DHT22;20121;51.910;8.406;2023-05-24T13:25:03;14.10;99.90
33815;DHT22;20121;51.910;8.406;2023-05-24T13:27:29;14.10;99.90
33815;DHT22;20121;51.910;8.406;2023-05-24T13:29:55;14.10;99.90
33815;DHT22;20121;51.910;8.406;2023-05-24T13:32:20;14.00;99.90
33815;DHT22;20121;51.910;8.406;2023-05-24T13:34:46;13.90;99.90
33815;DHT22;20121;51.910;8.406;2023-05-24T13:37:12;13.90;99.90
33815;DHT22;20121;51.910;8.406;2023-05-24T13:39:38;13.90;99.90
33815;DHT22;20121;51.910;8.406;2023-05-24T13:42:04;13.60;99.90
33815;DHT22;20121;51.910;8.406;2023-05-24T13:44:30;13.80;99.90
33815;DHT22;20121;51.910;8.406;2023-05-24T13:46:57;13.80;99.90
33815;DHT22;20121;51.910;8.406;2023-05-24T13:49:22;13.80;99.90
33815;DHT22;20121;51.910;8.406;2023-05-24T13:51:48;13.90;99.90
33815;DHT22;20121;51.910;8.406;2023-05-24T13:54:14;13.90;99.90
33815;DHT22;20121;51.910;8.406;2023-05-24T13:56:40;14.00;99.90
33815;DHT22;20121;51.910;8.406;2023-05-24T13:59:08;14.10;99.90
33815;DHT22;20121;51.910;8.406;2023-05-24T14:01:34;14.10;99.90
33815;DHT22;20121;51.910;8.406;2023-05-24T14:04:03;14.10;99.90
33815;DHT22;20121;51.910;8.406;2023-05-24T14:06:30;14.10;99.90
33815;DHT22;20121;51.910;8.406;2023-05-24T14:08:56;14.10;99.90
33815;DHT22;20121;51.910;8.406;2023-05-24T14:11:22;14.10;99.90
33815;DHT22;20121;51.910;8.406;2023-05-24T14:13:49;14.10;99.90
33815;DHT22;20121;51.910;8.406;2023-05-24T14:16:15;14.10;99.90
33815;DHT22;20121;51.910;8.406;2023-05-24T14:18:41;14.20;99.90
33815;DHT22;20121;51.910;8.406;2023-05-24T14:21:07;14.30;99.90
33815;DHT22;20121;51.910;8.406;2023-05-24T14:23:33;14.40;99.90
33815;DHT22;20121;51.910;8.406;2023-05-24T14:25:59;14.50;99.90
33815;DHT22;20121;51.910;8.406;2023-05-24T14:28:24;14.60;99.90
33815;DHT22;20121;51.910;8.406;2023-05-24T14:30:50;14.70;99.90
33815;DHT22;20121;51.910;8.406;2023-05-24T14:33:15;14.80;99.90
33815;DHT22;20121;51.910;8.406;2023-05-24T14:35:41;14.80;99.90
33815;DHT22;20121;51.910;8.406;2023-05-24T14:38:10;14.80;99.90
33815;DHT22;20121;51.910;8.406;2023-05-24T14:40:37;14.80;99.90
33815;DHT22;20121;51.910;8.406;2023-05-24T14:43:05;14.30;99.90
33815;DHT22;20121;51.910;8.406;2023-05-24T14:45:31;14.60;99.90
33815;DHT22;20121;51.910;8.406;2023-05-24T14:47:56;14.60;99.90
33815;DHT22;20121;51.910;8.406;2023-05-24T14:50:22;14.60;99.90
33815;DHT22;20121;51.910;8.406;2023-05-24T14:52:48;14.50;99.90
33815;DHT22;20121;51.910;8.406;2023-05-24T14:55:14;14.50;99.90
33815;DHT22;20121;51.910;8.406;2023-05-24T14:57:40;14.50;99.90
33815;DHT22;20121;51.910;8.406;2023-05-24T15:00:07;14.50;99.90
33815;DHT22;20121;51.910;8.406;2023-05-24T15:02:33;14.50;99.90
33815;DHT22;20121;51.910;8.406;2023-05-24T15:05:02;14.50;99.90
33815;DHT22;20121;51.910;8.406;2023-05-24T15:07:27;14.50;99.90
33815;DHT22;20121;51.910;8.406;2023-05-24T15:09:53;14.50;99.90
33815;DHT22;20121;51.910;8.406;2023-05-24T15:12:19;14.00;99.90
33815;DHT22;20121;51.910;8.406;2023-05-24T15:14:45;14.40;99.90
33815;DHT22;20121;51.910;8.406;2023-05-24T15:17:11;14.30;99.90
33815;DHT22;20121;51.910;8.406;2023-05-24T15:19:37;14.20;99.90
33815;DHT22;20121;51.910;8.406;2023-05-24T15:22:02;14.20;99.90
33815;DHT22;20121;51.910;8.406;2023-05-24T15:24:29;14.10;99.90
33815;DHT22;20121;51.910;8.406;2023-05-24T15:26:54;14.10;99.90
33815;DHT22;20121;51.910;8.406;2023-05-24T15:29:21;14.00;99.90
33815;DHT22;20121;51.910;8.406;2023-05-24T15:31:47;14.00;99.90
33815;DHT22;20121;51.910;8.406;2023-05-24T15:34:12;14.00;99.90
33815;DHT22;20121;51.910;8.406;2023-05-24T15:36:38;14.00;99.90
33815;DHT22;20121;51.910;8.406;2023-05-24T15:39:03;14.00;99.90
33815;DHT22;20121;51.910;8.406;2023-05-24T15:41:32;14.10;99.90
33815;DHT22;20121;51.910;8.406;2023-05-24T15:43:58;14.20;99.90
33815;DHT22;20121;51.910;8.406;2023-05-24T15:46:25;14.30;99.90
33815;DHT22;20121;51.910;8.406;2023-05-24T15:48:51;14.30;99.90
33815;DHT22;20121;51.910;8.406;2023-05-24T15:51:17;14.30;99.90
33815;DHT22;20121;51.910;8.406;2023-05-24T15:53:42;14.40;99.90
33815;DHT22;20121;51.910;8.406;2023-05-24T15:56:08;14.40;99.90
33815;DHT22;20121;51.910;8.406;2023-05-24T15:58:34;14.50;99.90
33815;DHT22;20121;51.910;8.406;2023-05-24T16:01:00;14.50;99.90
33815;DHT22;20121;51.910;8.406;2023-05-24T16:03:25;14.60;99.90
33815;DHT22;20121;51.910;8.406;2023-05-24T16:05:51;14.50;99.90